sensor_id;sensor_type;location;lat;lon;timestamp;P1;durP1;ratioP1;P2;durP2;ratioP2
35245;SDS011;21379;50.962;6.960;2022-08-14T00:00:04;4.40;;;2.78;;
35245;SDS011;21379;50.962;6.960;2022-08-14T00:02:33;3.53;;;2.63;;
35245;SDS011;21379;50.962;6.960;2022-08-14T00:05:00;4.35;;;2.45;;
35245;SDS011;21379;50.962;6.960;2022-08-14T00:07:27;6.72;;;2.75;;
35245;SDS011;21379;50.962;6.960;2022-08-14T00:09:54;3.92;;;2.60;;
35245;SDS011;21379;50.962;6.960;2022-08-14T00:12:21;3.20;;;2.40;;
35245;SDS011;21379;50.962;6.960;2022-08-14T00:14:49;3.90;;;2.67;;
35245;SDS011;21379;50.962;6.960;2022-08-14T00:17:17;3.92;;;2.33;;
35245;SDS011;21379;50.962;6.960;2022-08-14T00:19:44;4.38;;;2.67;;
35245;SDS011;21379;50.962;6.960;2022-08-14T00:22:11;4.78;;;2.95;;
35245;SDS011;21379;50.962;6.960;2022-08-14T00:24:42;2.97;;;2.30;;
35245;SDS011;21379;50.962;6.960;2022-08-14T00:27:09;3.83;;;2.60;;
35245;SDS011;21379;50.962;6.960;2022-08-14T00:29:36;2.83;;;2.10;;
35245;SDS011;21379;50.962;6.960;2022-08-14T00:32:05;3.60;;;2.80;;
35245;SDS011;21379;50.962;6.960;2022-08-14T00:34:32;3.92;;;2.42;;
35245;SDS011;21379;50.962;6.960;2022-08-14T00:36:59;7.32;;;2.70;;
35245;SDS011;21379;50.962;6.960;2022-08-14T00:39:26;3.33;;;2.80;;
35245;SDS011;21379;50.962;6.960;2022-08-14T00:41:53;4.50;;;3.10;;
35245;SDS011;21379;50.962;6.960;2022-08-14T00:44:20;3.80;;;2.70;;
35245;SDS011;21379;50.962;6.960;2022-08-14T00:46:47;3.40;;;3.08;;
35245;SDS011;21379;50.962;6.960;2022-08-14T00:49:15;3.53;;;2.88;;
35245;SDS011;21379;50.962;6.960;2022-08-14T00:51:42;8.90;;;3.60;;
35245;SDS011;21379;50.962;6.960;2022-08-14T00:54:10;5.00;;;3.10;;
35245;SDS011;21379;50.962;6.960;2022-08-14T00:56:37;4.97;;;3.22;;
35245;SDS011;21379;50.962;6.960;2022-08-14T00:59:04;5.43;;;3.00;;
35245;SDS011;21379;50.962;6.960;2022-08-14T01:01:31;4.25;;;3.10;;
35245;SDS011;21379;50.962;6.960;2022-08-14T01:04:01;4.95;;;3.38;;
35245;SDS011;21379;50.962;6.960;2022-08-14T01:06:30;5.90;;;3.40;;
35245;SDS011;21379;50.962;6.960;2022-08-14T01:08:58;4.78;;;3.00;;
35245;SDS011;21379;50.962;6.960;2022-08-14T01:11:26;4.38;;;3.05;;
35245;SDS011;21379;50.962;6.960;2022-08-14T01:13:53;4.20;;;3.40;;
35245;SDS011;21379;50.962;6.960;2022-08-14T01:16:25;4.63;;;3.65;;
35245;SDS011;21379;50.962;6.960;2022-08-14T01:18:54;4.78;;;2.92;;
35245;SDS011;21379;50.962;6.960;2022-08-14T01:21:40;5.00;;;3.22;;
35245;SDS011;21379;50.962;6.960;2022-08-14T01:24:10;4.80;;;3.28;;
35245;SDS011;21379;50.962;6.960;2022-08-14T01:26:39;4.80;;;3.42;;
35245;SDS011;21379;50.962;6.960;2022-08-14T01:29:08;4.07;;;3.58;;
35245;SDS011;21379;50.962;6.960;2022-08-14T01:31:36;4.40;;;3.70;;
35245;SDS011;21379;50.962;6.960;2022-08-14T01:34:06;6.35;;;4.00;;
35245;SDS011;21379;50.962;6.960;2022-08-14T01:36:34;5.45;;;3.55;;
35245;SDS011;21379;50.962;6.960;2022-08-14T01:39:04;4.90;;;3.58;;
35245;SDS011;21379;50.962;6.960;2022-08-14T01:41:34;5.05;;;3.90;;
35245;SDS011;21379;50.962;6.960;2022-08-14T01:44:03;4.25;;;3.35;;
35245;SDS011;21379;50.962;6.960;2022-08-14T01:46:32;4.25;;;3.33;;
35245;SDS011;21379;50.962;6.960;2022-08-14T01:49:01;5.38;;;3.75;;
35245;SDS011;21379;50.962;6.960;2022-08-14T01:51:30;6.25;;;3.80;;
35245;SDS011;21379;50.962;6.960;2022-08-14T01:53:58;8.10;;;3.88;;
35245;SDS011;21379;50.962;6.960;2022-08-14T01:56:29;7.45;;;4.32;;
35245;SDS011;21379;50.962;6.960;2022-08-14T01:59:03;11.32;;;4.15;;
35245;SDS011;21379;50.962;6.960;2022-08-14T02:01:32;8.02;;;3.78;;
35245;SDS011;21379;50.962;6.960;2022-08-14T02:03:59;5.50;;;3.70;;
35245;SDS011;21379;50.962;6.960;2022-08-14T02:06:26;8.85;;;4.50;;
35245;SDS011;21379;50.962;6.960;2022-08-14T02:08:54;5.70;;;4.18;;
35245;SDS011;21379;50.962;6.960;2022-08-14T02:11:31;7.40;;;4.18;;
35245;SDS011;21379;50.962;6.960;2022-08-14T02:14:00;6.20;;;4.10;;
35245;SDS011;21379;50.962;6.960;2022-08-14T02:16:29;7.15;;;4.30;;
35245;SDS011;21379;50.962;6.960;2022-08-14T02:19:01;6.25;;;4.45;;
35245;SDS011;21379;50.962;6.960;2022-08-14T02:21:30;6.20;;;4.00;;
35245;SDS011;21379;50.962;6.960;2022-08-14T02:23:59;5.55;;;3.83;;
35245;SDS011;21379;50.962;6.960;2022-08-14T02:26:27;4.38;;;3.65;;
35245;SDS011;21379;50.962;6.960;2022-08-14T02:28:58;5.22;;;4.13;;
35245;SDS011;21379;50.962;6.960;2022-08-14T02:31:27;6.38;;;4.93;;
35245;SDS011;21379;50.962;6.960;2022-08-14T02:33:57;6.18;;;4.30;;
35245;SDS011;21379;50.962;6.960;2022-08-14T02:36:24;5.43;;;3.90;;
35245;SDS011;21379;50.962;6.960;2022-08-14T02:38:51;5.72;;;4.10;;
35245;SDS011;21379;50.962;6.960;2022-08-14T02:41:18;6.20;;;4.30;;
35245;SDS011;21379;50.962;6.960;2022-08-14T02:43:45;5.72;;;3.92;;
35245;SDS011;21379;50.962;6.960;2022-08-14T02:46:14;6.88;;;4.18;;
35245;SDS011;21379;50.962;6.960;2022-08-14T02:48:41;5.32;;;4.35;;
35245;SDS011;21379;50.962;6.960;2022-08-14T02:51:09;9.80;;;3.95;;
35245;SDS011;21379;50.962;6.960;2022-08-14T02:53:38;6.80;;;4.45;;
35245;SDS011;21379;50.962;6.960;2022-08-14T02:56:08;7.93;;;4.15;;
35245;SDS011;21379;50.962;6.960;2022-08-14T02:58:39;6.68;;;4.60;;
35245;SDS011;21379;50.962;6.960;2022-08-14T03:01:11;5.68;;;4.38;;
35245;SDS011;21379;50.962;6.960;2022-08-14T03:03:41;5.72;;;4.10;;
35245;SDS011;21379;50.962;6.960;2022-08-14T03:06:09;5.63;;;4.55;;
35245;SDS011;21379;50.962;6.960;2022-08-14T03:08:37;6.85;;;4.85;;
35245;SDS011;21379;50.962;6.960;2022-08-14T03:11:06;7.47;;;4.70;;
35245;SDS011;21379;50.962;6.960;2022-08-14T03:13:34;5.68;;;4.20;;
35245;SDS011;21379;50.962;6.960;2022-08-14T03:16:03;6.70;;;4.70;;
35245;SDS011;21379;50.962;6.960;2022-08-14T03:18:30;5.88;;;3.88;;
35245;SDS011;21379;50.962;6.960;2022-08-14T03:21:03;9.27;;;4.38;;
35245;SDS011;21379;50.962;6.960;2022-08-14T03:26:00;7.85;;;4.65;;
35245;SDS011;21379;50.962;6.960;2022-08-14T03:28:29;5.15;;;4.65;;
35245;SDS011;21379;50.962;6.960;2022-08-14T03:30:56;10.32;;;5.20;;
35245;SDS011;21379;50.962;6.960;2022-08-14T03:33:23;6.10;;;4.85;;
35245;SDS011;21379;50.962;6.960;2022-08-14T03:35:51;8.60;;;4.15;;
35245;SDS011;21379;50.962;6.960;2022-08-14T03:38:20;5.95;;;4.20;;
35245;SDS011;21379;50.962;6.960;2022-08-14T03:40:47;7.05;;;4.53;;
35245;SDS011;21379;50.962;6.960;2022-08-14T03:43:14;7.32;;;4.47;;
35245;SDS011;21379;50.962;6.960;2022-08-14T03:45:41;6.05;;;4.40;;
35245;SDS011;21379;50.962;6.960;2022-08-14T03:48:10;9.70;;;4.72;;
35245;SDS011;21379;50.962;6.960;2022-08-14T03:50:43;7.15;;;4.53;;
35245;SDS011;21379;50.962;6.960;2022-08-14T03:53:11;5.68;;;4.10;;
35245;SDS011;21379;50.962;6.960;2022-08-14T03:55:39;6.43;;;4.68;;
35245;SDS011;21379;50.962;6.960;2022-08-14T03:58:07;7.50;;;4.40;;
35245;SDS011;21379;50.962;6.960;2022-08-14T04:00:36;8.13;;;4.00;;
35245;SDS011;21379;50.962;6.960;2022-08-14T04:03:05;7.75;;;4.65;;
35245;SDS011;21379;50.962;6.960;2022-08-14T04:05:33;6.07;;;4.35;;
35245;SDS011;21379;50.962;6.960;2022-08-14T04:08:02;7.40;;;4.47;;
35245;SDS011;21379;50.962;6.960;2022-08-14T04:10:30;7.55;;;4.45;;
35245;SDS011;21379;50.962;6.960;2022-08-14T04:12:58;6.60;;;4.80;;
35245;SDS011;21379;50.962;6.960;2022-08-14T04:15:25;5.45;;;4.18;;
35245;SDS011;21379;50.962;6.960;2022-08-14T04:17:52;6.03;;;4.05;;
35245;SDS011;21379;50.962;6.960;2022-08-14T04:20:20;7.28;;;4.82;;
35245;SDS011;21379;50.962;6.960;2022-08-14T04:22:47;6.78;;;4.40;;
35245;SDS011;21379;50.962;6.960;2022-08-14T04:25:17;6.30;;;4.72;;
35245;SDS011;21379;50.962;6.960;2022-08-14T04:27:44;7.57;;;4.78;;
35245;SDS011;21379;50.962;6.960;2022-08-14T04:30:12;8.80;;;4.15;;
35245;SDS011;21379;50.962;6.960;2022-08-14T04:32:40;7.57;;;4.03;;
35245;SDS011;21379;50.962;6.960;2022-08-14T04:35:09;5.78;;;4.18;;
35245;SDS011;21379;50.962;6.960;2022-08-14T04:37:36;5.72;;;4.15;;
35245;SDS011;21379;50.962;6.960;2022-08-14T04:40:21;8.82;;;4.90;;
35245;SDS011;21379;50.962;6.960;2022-08-14T04:43:05;5.68;;;4.30;;
35245;SDS011;21379;50.962;6.960;2022-08-14T04:45:51;5.82;;;4.28;;
35245;SDS011;21379;50.962;6.960;2022-08-14T04:48:18;7.47;;;5.10;;
35245;SDS011;21379;50.962;6.960;2022-08-14T04:50:46;6.32;;;4.25;;
35245;SDS011;21379;50.962;6.960;2022-08-14T04:53:16;5.40;;;4.38;;
35245;SDS011;21379;50.962;6.960;2022-08-14T04:55:44;9.60;;;5.15;;
35245;SDS011;21379;50.962;6.960;2022-08-14T04:58:12;5.95;;;4.60;;
35245;SDS011;21379;50.962;6.960;2022-08-14T05:00:41;7.55;;;5.00;;
35245;SDS011;21379;50.962;6.960;2022-08-14T05:03:10;9.75;;;5.45;;
35245;SDS011;21379;50.962;6.960;2022-08-14T05:05:37;5.35;;;4.50;;
35245;SDS011;21379;50.962;6.960;2022-08-14T05:08:05;7.03;;;4.53;;
35245;SDS011;21379;50.962;6.960;2022-08-14T05:10:36;7.18;;;4.45;;
35245;SDS011;21379;50.962;6.960;2022-08-14T05:13:05;7.15;;;5.30;;
35245;SDS011;21379;50.962;6.960;2022-08-14T05:15:32;6.20;;;4.78;;
35245;SDS011;21379;50.962;6.960;2022-08-14T05:18:01;6.82;;;5.13;;
35245;SDS011;21379;50.962;6.960;2022-08-14T05:20:30;10.38;;;5.07;;
35245;SDS011;21379;50.962;6.960;2022-08-14T05:22:59;6.68;;;5.00;;
35245;SDS011;21379;50.962;6.960;2022-08-14T05:25:27;8.73;;;5.20;;
35245;SDS011;21379;50.962;6.960;2022-08-14T05:27:54;7.50;;;5.50;;
35245;SDS011;21379;50.962;6.960;2022-08-14T05:30:24;7.20;;;5.03;;
35245;SDS011;21379;50.962;6.960;2022-08-14T05:32:51;6.63;;;4.57;;
35245;SDS011;21379;50.962;6.960;2022-08-14T05:35:19;7.60;;;5.35;;
35245;SDS011;21379;50.962;6.960;2022-08-14T05:37:47;6.40;;;4.93;;
35245;SDS011;21379;50.962;6.960;2022-08-14T05:40:14;13.27;;;5.05;;
35245;SDS011;21379;50.962;6.960;2022-08-14T05:42:41;7.35;;;5.32;;
35245;SDS011;21379;50.962;6.960;2022-08-14T05:45:08;10.85;;;5.78;;
35245;SDS011;21379;50.962;6.960;2022-08-14T05:47:38;8.93;;;5.75;;
35245;SDS011;21379;50.962;6.960;2022-08-14T05:50:09;7.93;;;5.75;;
35245;SDS011;21379;50.962;6.960;2022-08-14T05:52:37;9.40;;;6.20;;
35245;SDS011;21379;50.962;6.960;2022-08-14T05:55:07;9.38;;;5.90;;
35245;SDS011;21379;50.962;6.960;2022-08-14T05:57:50;9.75;;;5.80;;
35245;SDS011;21379;50.962;6.960;2022-08-14T06:00:19;7.63;;;5.65;;
35245;SDS011;21379;50.962;6.960;2022-08-14T06:02:47;7.15;;;4.90;;
35245;SDS011;21379;50.962;6.960;2022-08-14T06:05:14;9.57;;;5.88;;
35245;SDS011;21379;50.962;6.960;2022-08-14T06:07:40;8.40;;;5.05;;
35245;SDS011;21379;50.962;6.960;2022-08-14T06:10:09;6.65;;;4.95;;
35245;SDS011;21379;50.962;6.960;2022-08-14T06:12:36;13.90;;;5.35;;
35245;SDS011;21379;50.962;6.960;2022-08-14T06:15:04;6.65;;;4.63;;
35245;SDS011;21379;50.962;6.960;2022-08-14T06:17:41;10.25;;;5.03;;
35245;SDS011;21379;50.962;6.960;2022-08-14T06:20:09;9.68;;;4.93;;
35245;SDS011;21379;50.962;6.960;2022-08-14T06:22:36;7.93;;;5.25;;
35245;SDS011;21379;50.962;6.960;2022-08-14T06:25:03;6.35;;;5.40;;
35245;SDS011;21379;50.962;6.960;2022-08-14T06:27:35;6.70;;;5.18;;
35245;SDS011;21379;50.962;6.960;2022-08-14T06:30:03;9.52;;;5.50;;
35245;SDS011;21379;50.962;6.960;2022-08-14T06:32:31;8.85;;;5.43;;
35245;SDS011;21379;50.962;6.960;2022-08-14T06:34:58;6.50;;;4.40;;
35245;SDS011;21379;50.962;6.960;2022-08-14T06:37:25;7.45;;;5.53;;
35245;SDS011;21379;50.962;6.960;2022-08-14T06:39:52;6.57;;;4.85;;
35245;SDS011;21379;50.962;6.960;2022-08-14T06:42:19;13.07;;;4.97;;
35245;SDS011;21379;50.962;6.960;2022-08-14T06:44:47;6.15;;;4.57;;
35245;SDS011;21379;50.962;6.960;2022-08-14T06:47:14;5.88;;;4.88;;
35245;SDS011;21379;50.962;6.960;2022-08-14T06:49:41;5.88;;;4.55;;
35245;SDS011;21379;50.962;6.960;2022-08-14T06:52:08;8.07;;;5.18;;
35245;SDS011;21379;50.962;6.960;2022-08-14T06:54:35;7.88;;;4.63;;
35245;SDS011;21379;50.962;6.960;2022-08-14T06:57:02;5.40;;;4.47;;
35245;SDS011;21379;50.962;6.960;2022-08-14T06:59:29;7.57;;;5.10;;
35245;SDS011;21379;50.962;6.960;2022-08-14T07:01:57;7.18;;;4.75;;
35245;SDS011;21379;50.962;6.960;2022-08-14T07:04:41;7.07;;;4.53;;
35245;SDS011;21379;50.962;6.960;2022-08-14T07:07:40;4.75;;;4.25;;
35245;SDS011;21379;50.962;6.960;2022-08-14T07:10:07;5.78;;;4.72;;
35245;SDS011;21379;50.962;6.960;2022-08-14T07:12:35;7.25;;;4.45;;
35245;SDS011;21379;50.962;6.960;2022-08-14T07:15:02;5.93;;;4.32;;
35245;SDS011;21379;50.962;6.960;2022-08-14T07:17:32;6.95;;;4.40;;
35245;SDS011;21379;50.962;6.960;2022-08-14T07:19:59;5.55;;;4.40;;
35245;SDS011;21379;50.962;6.960;2022-08-14T07:22:26;6.35;;;4.85;;
35245;SDS011;21379;50.962;6.960;2022-08-14T07:24:52;6.80;;;3.90;;
35245;SDS011;21379;50.962;6.960;2022-08-14T07:27:19;9.02;;;4.57;;
35245;SDS011;21379;50.962;6.960;2022-08-14T07:29:46;5.40;;;4.43;;
35245;SDS011;21379;50.962;6.960;2022-08-14T07:32:13;6.72;;;4.63;;
35245;SDS011;21379;50.962;6.960;2022-08-14T07:34:41;6.00;;;4.30;;
35245;SDS011;21379;50.962;6.960;2022-08-14T07:37:08;7.63;;;4.45;;
35245;SDS011;21379;50.962;6.960;2022-08-14T07:39:36;5.00;;;4.28;;
35245;SDS011;21379;50.962;6.960;2022-08-14T07:42:03;11.07;;;3.80;;
35245;SDS011;21379;50.962;6.960;2022-08-14T07:44:30;6.57;;;4.07;;
35245;SDS011;21379;50.962;6.960;2022-08-14T07:46:57;5.53;;;4.15;;
35245;SDS011;21379;50.962;6.960;2022-08-14T07:49:25;9.40;;;4.10;;
35245;SDS011;21379;50.962;6.960;2022-08-14T07:51:54;4.43;;;3.80;;
35245;SDS011;21379;50.962;6.960;2022-08-14T07:54:21;5.00;;;3.92;;
35245;SDS011;21379;50.962;6.960;2022-08-14T07:56:48;4.60;;;3.67;;
35245;SDS011;21379;50.962;6.960;2022-08-14T07:59:15;5.30;;;4.15;;
35245;SDS011;21379;50.962;6.960;2022-08-14T08:01:44;6.05;;;3.90;;
35245;SDS011;21379;50.962;6.960;2022-08-14T08:04:12;5.07;;;4.40;;
35245;SDS011;21379;50.962;6.960;2022-08-14T08:06:41;4.65;;;3.85;;
35245;SDS011;21379;50.962;6.960;2022-08-14T08:09:10;4.70;;;3.55;;
35245;SDS011;21379;50.962;6.960;2022-08-14T08:11:37;7.75;;;4.20;;
35245;SDS011;21379;50.962;6.960;2022-08-14T08:14:06;4.55;;;3.88;;
35245;SDS011;21379;50.962;6.960;2022-08-14T08:16:33;4.78;;;3.65;;
35245;SDS011;21379;50.962;6.960;2022-08-14T08:19:02;5.68;;;3.70;;
35245;SDS011;21379;50.962;6.960;2022-08-14T08:21:29;5.63;;;4.20;;
35245;SDS011;21379;50.962;6.960;2022-08-14T08:23:56;5.35;;;3.83;;
35245;SDS011;21379;50.962;6.960;2022-08-14T08:26:29;3.20;;;2.90;;
35245;SDS011;21379;50.962;6.960;2022-08-14T08:28:56;4.22;;;3.80;;
35245;SDS011;21379;50.962;6.960;2022-08-14T08:31:23;4.10;;;3.58;;
35245;SDS011;21379;50.962;6.960;2022-08-14T08:33:51;5.78;;;4.10;;
35245;SDS011;21379;50.962;6.960;2022-08-14T08:36:18;4.80;;;3.53;;
35245;SDS011;21379;50.962;6.960;2022-08-14T08:38:46;9.65;;;3.42;;
35245;SDS011;21379;50.962;6.960;2022-08-14T08:41:14;3.85;;;3.45;;
35245;SDS011;21379;50.962;6.960;2022-08-14T08:43:43;7.03;;;3.47;;
35245;SDS011;21379;50.962;6.960;2022-08-14T08:46:11;3.85;;;3.40;;
35245;SDS011;21379;50.962;6.960;2022-08-14T08:48:44;3.75;;;3.22;;
35245;SDS011;21379;50.962;6.960;2022-08-14T08:51:19;3.60;;;3.30;;
35245;SDS011;21379;50.962;6.960;2022-08-14T08:53:55;3.85;;;3.45;;
35245;SDS011;21379;50.962;6.960;2022-08-14T08:56:32;10.07;;;3.88;;
35245;SDS011;21379;50.962;6.960;2022-08-14T08:59:02;4.35;;;3.10;;
35245;SDS011;21379;50.962;6.960;2022-08-14T09:01:40;8.20;;;3.75;;
35245;SDS011;21379;50.962;6.960;2022-08-14T09:04:07;3.67;;;3.38;;
35245;SDS011;21379;50.962;6.960;2022-08-14T09:06:41;4.15;;;3.47;;
35245;SDS011;21379;50.962;6.960;2022-08-14T09:09:15;4.40;;;3.28;;
35245;SDS011;21379;50.962;6.960;2022-08-14T09:11:43;3.20;;;2.90;;
35245;SDS011;21379;50.962;6.960;2022-08-14T09:14:12;3.15;;;2.85;;
35245;SDS011;21379;50.962;6.960;2022-08-14T09:16:39;3.40;;;3.13;;
35245;SDS011;21379;50.962;6.960;2022-08-14T09:19:06;3.53;;;3.20;;
35245;SDS011;21379;50.962;6.960;2022-08-14T09:21:34;4.88;;;3.45;;
35245;SDS011;21379;50.962;6.960;2022-08-14T09:24:04;5.40;;;3.42;;
35245;SDS011;21379;50.962;6.960;2022-08-14T09:26:32;3.28;;;2.97;;
35245;SDS011;21379;50.962;6.960;2022-08-14T09:28:59;3.50;;;2.92;;
35245;SDS011;21379;50.962;6.960;2022-08-14T09:31:28;3.42;;;2.78;;
35245;SDS011;21379;50.962;6.960;2022-08-14T09:33:59;2.97;;;2.65;;
35245;SDS011;21379;50.962;6.960;2022-08-14T09:36:39;4.22;;;3.03;;
35245;SDS011;21379;50.962;6.960;2022-08-14T09:39:29;3.00;;;2.70;;
35245;SDS011;21379;50.962;6.960;2022-08-14T09:42:10;2.88;;;2.47;;
35245;SDS011;21379;50.962;6.960;2022-08-14T09:44:51;7.90;;;2.78;;
35245;SDS011;21379;50.962;6.960;2022-08-14T09:47:43;3.92;;;3.03;;
35245;SDS011;21379;50.962;6.960;2022-08-14T09:50:22;3.65;;;2.28;;
35245;SDS011;21379;50.962;6.960;2022-08-14T09:52:53;6.28;;;3.17;;
35245;SDS011;21379;50.962;6.960;2022-08-14T09:55:23;10.55;;;2.60;;
35245;SDS011;21379;50.962;6.960;2022-08-14T09:57:51;4.13;;;3.15;;
35245;SDS011;21379;50.962;6.960;2022-08-14T10:00:34;7.38;;;2.83;;
35245;SDS011;21379;50.962;6.960;2022-08-14T10:03:09;3.63;;;2.33;;
35245;SDS011;21379;50.962;6.960;2022-08-14T10:05:36;2.85;;;2.45;;
35245;SDS011;21379;50.962;6.960;2022-08-14T10:08:07;5.72;;;2.78;;
35245;SDS011;21379;50.962;6.960;2022-08-14T10:10:42;3.20;;;2.55;;
35245;SDS011;21379;50.962;6.960;2022-08-14T10:13:19;2.50;;;2.30;;
35245;SDS011;21379;50.962;6.960;2022-08-14T10:15:47;2.85;;;2.38;;
35245;SDS011;21379;50.962;6.960;2022-08-14T10:18:16;2.47;;;2.25;;
35245;SDS011;21379;50.962;6.960;2022-08-14T10:20:51;3.00;;;2.22;;
35245;SDS011;21379;50.962;6.960;2022-08-14T10:23:22;4.18;;;2.47;;
35245;SDS011;21379;50.962;6.960;2022-08-14T10:25:52;2.35;;;2.15;;
35245;SDS011;21379;50.962;6.960;2022-08-14T10:28:23;2.67;;;2.47;;
35245;SDS011;21379;50.962;6.960;2022-08-14T10:30:51;2.30;;;2.10;;
35245;SDS011;21379;50.962;6.960;2022-08-14T10:33:27;3.05;;;2.47;;
35245;SDS011;21379;50.962;6.960;2022-08-14T10:35:55;2.45;;;1.90;;
35245;SDS011;21379;50.962;6.960;2022-08-14T10:38:28;2.63;;;1.90;;
35245;SDS011;21379;50.962;6.960;2022-08-14T10:41:08;2.53;;;2.08;;
35245;SDS011;21379;50.962;6.960;2022-08-14T10:43:37;2.35;;;2.00;;
35245;SDS011;21379;50.962;6.960;2022-08-14T10:46:10;2.33;;;1.67;;
35245;SDS011;21379;50.962;6.960;2022-08-14T10:48:40;3.40;;;1.70;;
35245;SDS011;21379;50.962;6.960;2022-08-14T10:51:07;1.67;;;1.58;;
35245;SDS011;21379;50.962;6.960;2022-08-14T10:53:34;1.88;;;1.70;;
35245;SDS011;21379;50.962;6.960;2022-08-14T10:56:07;2.05;;;1.77;;
35245;SDS011;21379;50.962;6.960;2022-08-14T10:58:35;1.63;;;1.50;;
35245;SDS011;21379;50.962;6.960;2022-08-14T11:01:03;3.78;;;1.77;;
35245;SDS011;21379;50.962;6.960;2022-08-14T11:03:40;2.40;;;2.20;;
35245;SDS011;21379;50.962;6.960;2022-08-14T11:06:12;1.92;;;1.55;;
35245;SDS011;21379;50.962;6.960;2022-08-14T11:08:44;3.28;;;1.77;;
35245;SDS011;21379;50.962;6.960;2022-08-14T11:11:12;1.85;;;1.70;;
35245;SDS011;21379;50.962;6.960;2022-08-14T11:13:40;3.30;;;2.03;;
35245;SDS011;21379;50.962;6.960;2022-08-14T11:16:10;2.42;;;1.90;;
35245;SDS011;21379;50.962;6.960;2022-08-14T11:18:42;2.10;;;1.90;;
35245;SDS011;21379;50.962;6.960;2022-08-14T11:21:11;3.47;;;1.90;;
35245;SDS011;21379;50.962;6.960;2022-08-14T11:23:40;1.92;;;1.63;;
35245;SDS011;21379;50.962;6.960;2022-08-14T11:26:10;1.90;;;1.50;;
35245;SDS011;21379;50.962;6.960;2022-08-14T11:28:39;1.70;;;1.60;;
35245;SDS011;21379;50.962;6.960;2022-08-14T11:31:08;1.58;;;1.48;;
35245;SDS011;21379;50.962;6.960;2022-08-14T11:33:38;1.73;;;1.63;;
35245;SDS011;21379;50.962;6.960;2022-08-14T11:36:07;3.75;;;1.70;;
35245;SDS011;21379;50.962;6.960;2022-08-14T11:38:37;1.80;;;1.60;;
35245;SDS011;21379;50.962;6.960;2022-08-14T11:41:05;3.60;;;1.58;;
35245;SDS011;21379;50.962;6.960;2022-08-14T11:43:36;1.50;;;1.40;;
35245;SDS011;21379;50.962;6.960;2022-08-14T11:46:05;2.05;;;1.58;;
35245;SDS011;21379;50.962;6.960;2022-08-14T11:48:32;1.63;;;1.52;;
35245;SDS011;21379;50.962;6.960;2022-08-14T11:51:12;1.83;;;1.60;;
35245;SDS011;21379;50.962;6.960;2022-08-14T11:53:49;2.33;;;1.95;;
35245;SDS011;21379;50.962;6.960;2022-08-14T11:56:17;2.20;;;2.00;;
35245;SDS011;21379;50.962;6.960;2022-08-14T11:58:44;2.50;;;2.05;;
35245;SDS011;21379;50.962;6.960;2022-08-14T12:01:17;1.48;;;1.38;;
35245;SDS011;21379;50.962;6.960;2022-08-14T12:06:19;1.52;;;1.42;;
35245;SDS011;21379;50.962;6.960;2022-08-14T12:08:46;2.00;;;1.80;;
35245;SDS011;21379;50.962;6.960;2022-08-14T12:11:18;2.33;;;2.00;;
35245;SDS011;21379;50.962;6.960;2022-08-14T12:13:45;2.60;;;1.80;;
35245;SDS011;21379;50.962;6.960;2022-08-14T12:16:13;3.65;;;1.90;;
35245;SDS011;21379;50.962;6.960;2022-08-14T12:18:41;2.67;;;1.90;;
35245;SDS011;21379;50.962;6.960;2022-08-14T12:21:13;2.17;;;1.88;;
35245;SDS011;21379;50.962;6.960;2022-08-14T12:23:43;2.67;;;2.10;;
35245;SDS011;21379;50.962;6.960;2022-08-14T12:26:12;3.92;;;2.10;;
35245;SDS011;21379;50.962;6.960;2022-08-14T12:28:43;2.83;;;1.50;;
35245;SDS011;21379;50.962;6.960;2022-08-14T12:31:11;3.95;;;1.90;;
35245;SDS011;21379;50.962;6.960;2022-08-14T12:33:54;3.55;;;2.10;;
35245;SDS011;21379;50.962;6.960;2022-08-14T12:36:21;1.77;;;1.67;;
35245;SDS011;21379;50.962;6.960;2022-08-14T12:38:50;1.80;;;1.70;;
35245;SDS011;21379;50.962;6.960;2022-08-14T12:41:20;2.70;;;2.10;;
35245;SDS011;21379;50.962;6.960;2022-08-14T12:43:49;5.88;;;1.95;;
35245;SDS011;21379;50.962;6.960;2022-08-14T12:46:22;1.85;;;1.70;;
35245;SDS011;21379;50.962;6.960;2022-08-14T12:48:51;1.98;;;1.67;;
35245;SDS011;21379;50.962;6.960;2022-08-14T12:51:18;2.20;;;1.80;;
35245;SDS011;21379;50.962;6.960;2022-08-14T12:53:51;2.30;;;1.63;;
35245;SDS011;21379;50.962;6.960;2022-08-14T12:56:19;2.22;;;2.03;;
35245;SDS011;21379;50.962;6.960;2022-08-14T12:58:50;2.65;;;1.88;;
35245;SDS011;21379;50.962;6.960;2022-08-14T13:01:19;2.17;;;1.67;;
35245;SDS011;21379;50.962;6.960;2022-08-14T13:03:47;2.42;;;2.03;;
35245;SDS011;21379;50.962;6.960;2022-08-14T13:06:16;2.30;;;2.10;;
35245;SDS011;21379;50.962;6.960;2022-08-14T13:08:44;2.28;;;1.92;;
35245;SDS011;21379;50.962;6.960;2022-08-14T13:11:13;2.15;;;1.90;;
35245;SDS011;21379;50.962;6.960;2022-08-14T13:13:42;2.33;;;2.05;;
35245;SDS011;21379;50.962;6.960;2022-08-14T13:16:10;2.45;;;1.92;;
35245;SDS011;21379;50.962;6.960;2022-08-14T13:18:40;5.35;;;2.22;;
35245;SDS011;21379;50.962;6.960;2022-08-14T13:21:09;1.95;;;1.80;;
35245;SDS011;21379;50.962;6.960;2022-08-14T13:23:37;2.40;;;2.20;;
35245;SDS011;21379;50.962;6.960;2022-08-14T13:26:08;2.75;;;2.13;;
35245;SDS011;21379;50.962;6.960;2022-08-14T13:28:37;4.07;;;1.77;;
35245;SDS011;21379;50.962;6.960;2022-08-14T13:31:07;3.88;;;2.00;;
35245;SDS011;21379;50.962;6.960;2022-08-14T13:33:36;1.90;;;1.70;;
35245;SDS011;21379;50.962;6.960;2022-08-14T13:36:04;2.20;;;2.00;;
35245;SDS011;21379;50.962;6.960;2022-08-14T13:38:32;2.22;;;2.03;;
35245;SDS011;21379;50.962;6.960;2022-08-14T13:40:59;3.85;;;2.08;;
35245;SDS011;21379;50.962;6.960;2022-08-14T13:43:27;1.73;;;1.63;;
35245;SDS011;21379;50.962;6.960;2022-08-14T13:45:57;2.13;;;1.70;;
35245;SDS011;21379;50.962;6.960;2022-08-14T13:48:24;1.42;;;1.33;;
35245;SDS011;21379;50.962;6.960;2022-08-14T13:50:52;2.05;;;1.80;;
35245;SDS011;21379;50.962;6.960;2022-08-14T13:53:21;2.30;;;1.63;;
35245;SDS011;21379;50.962;6.960;2022-08-14T13:55:50;5.18;;;2.08;;
35245;SDS011;21379;50.962;6.960;2022-08-14T13:58:20;2.33;;;2.05;;
35245;SDS011;21379;50.962;6.960;2022-08-14T14:00:49;1.92;;;1.52;;
35245;SDS011;21379;50.962;6.960;2022-08-14T14:03:18;1.95;;;1.80;;
35245;SDS011;21379;50.962;6.960;2022-08-14T14:05:48;2.20;;;1.83;;
35245;SDS011;21379;50.962;6.960;2022-08-14T14:08:16;1.90;;;1.67;;
35245;SDS011;21379;50.962;6.960;2022-08-14T14:10:45;2.00;;;1.60;;
35245;SDS011;21379;50.962;6.960;2022-08-14T14:13:13;6.88;;;1.88;;
35245;SDS011;21379;50.962;6.960;2022-08-14T14:15:42;1.73;;;1.63;;
35245;SDS011;21379;50.962;6.960;2022-08-14T14:18:09;4.18;;;1.85;;
35245;SDS011;21379;50.962;6.960;2022-08-14T14:20:41;5.35;;;1.83;;
35245;SDS011;21379;50.962;6.960;2022-08-14T14:23:11;1.48;;;1.38;;
35245;SDS011;21379;50.962;6.960;2022-08-14T14:25:39;1.35;;;1.25;;
35245;SDS011;21379;50.962;6.960;2022-08-14T14:28:07;2.00;;;1.67;;
35245;SDS011;21379;50.962;6.960;2022-08-14T14:30:35;2.10;;;1.67;;
35245;SDS011;21379;50.962;6.960;2022-08-14T14:33:06;1.50;;;1.40;;
35245;SDS011;21379;50.962;6.960;2022-08-14T14:35:36;1.95;;;1.67;;
35245;SDS011;21379;50.962;6.960;2022-08-14T14:38:05;2.90;;;1.30;;
35245;SDS011;21379;50.962;6.960;2022-08-14T14:40:33;2.20;;;1.90;;
35245;SDS011;21379;50.962;6.960;2022-08-14T14:43:03;2.03;;;1.92;;
35245;SDS011;21379;50.962;6.960;2022-08-14T14:45:34;2.90;;;1.50;;
35245;SDS011;21379;50.962;6.960;2022-08-14T14:48:03;1.60;;;1.40;;
35245;SDS011;21379;50.962;6.960;2022-08-14T14:50:33;1.52;;;1.27;;
35245;SDS011;21379;50.962;6.960;2022-08-14T14:53:02;1.52;;;1.30;;
35245;SDS011;21379;50.962;6.960;2022-08-14T14:55:31;1.90;;;1.60;;
35245;SDS011;21379;50.962;6.960;2022-08-14T14:57:58;6.30;;;1.77;;
35245;SDS011;21379;50.962;6.960;2022-08-14T15:00:25;2.55;;;1.55;;
35245;SDS011;21379;50.962;6.960;2022-08-14T15:02:52;3.30;;;1.40;;
35245;SDS011;21379;50.962;6.960;2022-08-14T15:05:21;4.70;;;2.25;;